createdAt,value
2023-01-17T00:02:10.561Z,92165.13
2023-01-17T00:04:56.196Z,92166.81
2023-01-17T00:07:44.326Z,92160.63
2023-01-17T00:10:15.834Z,92141.47
2023-01-17T00:12:49.096Z,92174.31
2023-01-17T00:15:19.942Z,92163.44
2023-01-17T00:17:48.884Z,92188.03
2023-01-17T00:20:35.928Z,92205.56
2023-01-17T00:23:26.275Z,92215.72
2023-01-17T00:26:07.050Z,92201.47
2023-01-17T00:28:36.711Z,92210.66
2023-01-17T00:31:05.001Z,92210.75
2023-01-17T00:33:32.273Z,92224.81
2023-01-17T00:36:00.365Z,92235.47
2023-01-17T00:38:30.844Z,92233.09
2023-01-17T00:41:02.594Z,92234.91
2023-01-17T00:43:49.108Z,92242.03
2023-01-17T00:46:35.144Z,92263.50
2023-01-17T00:49:20.567Z,92246.66
2023-01-17T00:52:06.163Z,92276.94
2023-01-17T00:54:53.247Z,92277.31
2023-01-17T00:57:38.731Z,92302.00
2023-01-17T01:00:25.607Z,92283.63
2023-01-17T01:03:11.138Z,92308.56
2023-01-17T01:05:57.483Z,92303.66
2023-01-17T01:08:44.847Z,92322.13
2023-01-17T01:11:34.992Z,92321.78
2023-01-17T01:14:21.162Z,92304.13
2023-01-17T01:17:07.188Z,92322.72
2023-01-17T01:19:53.083Z,92306.06
2023-01-17T01:22:38.829Z,92308.09
2023-01-17T01:25:25.493Z,92352.25
2023-01-17T01:28:20.934Z,92364.44
2023-01-17T01:31:06.743Z,92358.06
2023-01-17T01:33:33.823Z,92352.56
2023-01-17T01:36:02.209Z,92372.00
2023-01-17T01:38:30.517Z,92368.56
2023-01-17T01:40:58.813Z,92376.97
2023-01-17T01:43:45.012Z,92393.09
2023-01-17T01:46:16.580Z,92395.28
2023-01-17T01:48:50.308Z,92396.63
2023-01-17T01:51:20.875Z,92406.69
2023-01-17T01:53:52.659Z,92403.34
2023-01-17T01:56:23.916Z,92421.16
2023-01-17T01:58:55.130Z,92410.56
2023-01-17T02:01:23.526Z,92413.94
2023-01-17T02:03:52.527Z,92400.72
2023-01-17T02:06:32.008Z,92415.53
2023-01-17T02:09:07.703Z,92423.22
2023-01-17T02:11:38.626Z,92419.66
2023-01-17T02:14:08.567Z,92416.91
2023-01-17T02:16:54.820Z,92430.47
2023-01-17T02:19:55.264Z,92408.03
2023-01-17T02:22:50.814Z,92428.88
2023-01-17T02:25:49.513Z,92429.88
2023-01-17T02:28:37.447Z,92409.47
2023-01-17T02:31:15.837Z,92433.81
2023-01-17T02:33:52.533Z,92442.53
2023-01-17T02:36:26.149Z,92406.03
2023-01-17T02:38:58.595Z,92431.47
2023-01-17T02:41:32.528Z,92408.69
2023-01-17T02:44:03.200Z,92408.09
2023-01-17T02:46:33.005Z,92426.94
2023-01-17T02:49:01.780Z,92385.13
2023-01-17T02:52:05.881Z,92429.47
2023-01-17T02:54:53.431Z,92426.22
2023-01-17T02:57:37.772Z,92407.66
2023-01-17T03:00:15.550Z,92434.59
2023-01-17T03:02:54.180Z,92442.28
2023-01-17T03:05:29.088Z,92454.06
2023-01-17T03:07:58.136Z,92323.69
2023-01-17T03:10:26.484Z,92445.03
2023-01-17T03:12:59.061Z,92435.97
2023-01-17T03:15:27.815Z,92441.66
2023-01-17T03:18:02.855Z,92436.00
2023-01-17T03:20:31.273Z,92421.38
2023-01-17T03:22:59.659Z,92458.22
2023-01-17T03:25:27.932Z,92462.91
2023-01-17T03:27:56.343Z,92470.09
2023-01-17T03:30:24.766Z,92464.47
2023-01-17T03:32:53.253Z,92458.81
2023-01-17T03:35:23.247Z,92465.66
2023-01-17T03:37:51.518Z,92426.38
2023-01-17T03:40:19.954Z,92453.00
2023-01-17T03:42:48.324Z,92471.38
2023-01-17T03:45:16.842Z,92472.16
2023-01-17T03:47:45.231Z,92477.38
2023-01-17T03:50:14.234Z,92491.63
2023-01-17T03:52:44.306Z,92465.38
2023-01-17T03:55:12.661Z,92468.81
2023-01-17T03:57:41.058Z,92480.00
2023-01-17T04:00:11.036Z,92486.41
2023-01-17T04:02:39.458Z,92486.91
2023-01-17T04:05:08.107Z,92495.34
2023-01-17T04:07:36.438Z,92488.88
2023-01-17T04:10:07.308Z,92497.03
2023-01-17T04:12:35.686Z,92498.47
2023-01-17T04:15:03.977Z,92496.63
2023-01-17T04:17:32.422Z,92506.75
2023-01-17T04:20:00.853Z,92463.69
2023-01-17T04:22:29.173Z,92502.44
2023-01-17T04:24:57.561Z,92511.56
2023-01-17T04:27:27.428Z,92518.53
2023-01-17T04:29:55.782Z,92519.31
2023-01-17T04:32:24.090Z,92518.25
2023-01-17T04:34:52.412Z,92510.66
2023-01-17T04:37:20.834Z,92538.16
2023-01-17T04:39:49.125Z,92523.63
2023-01-17T04:42:17.432Z,92531.69
2023-01-17T04:44:47.085Z,92529.53
2023-01-17T04:47:15.531Z,92535.03
2023-01-17T04:49:44.277Z,92533.91
2023-01-17T04:52:12.832Z,92562.28
2023-01-17T04:54:41.093Z,92551.97
2023-01-17T04:57:09.393Z,92553.47
2023-01-17T04:59:37.693Z,92558.25
2023-01-17T05:02:07.568Z,92557.41
2023-01-17T05:04:35.959Z,92564.78
2023-01-17T05:07:04.358Z,92530.06
2023-01-17T05:09:32.766Z,92575.88
2023-01-17T05:12:01.133Z,92541.41
2023-01-17T05:14:29.376Z,92593.94
2023-01-17T05:16:58.463Z,92589.13
2023-01-17T05:19:28.821Z,92586.69
2023-01-17T05:22:04.161Z,92588.25
2023-01-17T05:24:32.696Z,92606.63
2023-01-17T05:27:03.349Z,92608.69
2023-01-17T05:29:32.018Z,92608.00
2023-01-17T05:32:00.461Z,92620.84
2023-01-17T05:34:30.364Z,92624.41
2023-01-17T05:36:58.782Z,92638.56
2023-01-17T05:39:27.236Z,92640.31
2023-01-17T05:41:55.700Z,92635.00
2023-01-17T05:44:24.129Z,92619.06
2023-01-17T05:46:52.571Z,92655.41
2023-01-17T05:49:20.914Z,92662.31
2023-01-17T05:51:51.680Z,92661.16
2023-01-17T05:54:20.683Z,92683.94
2023-01-17T05:56:48.977Z,92654.59
2023-01-17T05:59:28.581Z,92666.78
2023-01-17T06:02:04.448Z,92614.56
2023-01-17T06:04:33.204Z,92672.25
2023-01-17T06:07:02.975Z,92666.13
2023-01-17T06:09:31.285Z,92671.78
2023-01-17T06:11:59.688Z,92674.41
2023-01-17T06:14:27.970Z,92662.03
2023-01-17T06:16:56.303Z,92675.03
2023-01-17T06:19:24.629Z,92671.91
2023-01-17T06:21:52.979Z,92670.97
2023-01-17T06:24:22.710Z,92674.56
2023-01-17T06:26:51.094Z,92681.72
2023-01-17T06:29:19.384Z,92687.81
2023-01-17T06:31:48.086Z,92682.84
2023-01-17T06:34:16.345Z,92698.91
2023-01-17T06:36:44.734Z,92699.31
2023-01-17T06:39:15.063Z,92707.03
2023-01-17T06:41:45.507Z,92709.09
2023-01-17T06:44:13.937Z,92694.63
2023-01-17T06:46:42.587Z,92718.44
2023-01-17T06:49:10.982Z,92720.00
2023-01-17T06:51:39.325Z,92718.41
2023-01-17T06:54:07.922Z,92636.84
2023-01-17T06:56:36.272Z,92702.94
2023-01-17T06:59:06.393Z,92708.88
2023-01-17T07:01:34.930Z,92725.22
2023-01-17T07:04:05.198Z,92723.06
2023-01-17T07:06:33.562Z,92727.44
2023-01-17T07:09:01.901Z,92724.22
2023-01-17T07:11:30.221Z,92704.75
2023-01-17T07:13:58.552Z,92677.28
2023-01-17T07:16:28.479Z,92743.41
2023-01-17T07:18:58.299Z,92730.28
2023-01-17T07:21:26.662Z,92714.84
2023-01-17T07:23:54.997Z,92734.53
2023-01-17T07:26:23.318Z,92753.25
2023-01-17T07:28:51.687Z,92755.06
2023-01-17T07:31:20.026Z,92754.34
2023-01-17T07:33:49.809Z,92755.06
2023-01-17T07:36:18.153Z,92757.41
2023-01-17T07:38:47.789Z,92760.03
2023-01-17T07:41:16.126Z,92758.59
2023-01-17T07:43:44.425Z,92767.84
2023-01-17T07:46:15.370Z,92769.69
2023-01-17T07:48:43.908Z,92775.28
2023-01-17T07:51:13.633Z,92777.38
2023-01-17T07:53:41.995Z,92780.53
2023-01-17T07:56:10.648Z,92792.38
2023-01-17T07:58:39.018Z,92782.34
2023-01-17T08:01:09.735Z,92749.03
2023-01-17T08:03:40.294Z,92766.63
2023-01-17T08:06:17.391Z,92773.28
2023-01-17T08:08:46.193Z,92808.69
2023-01-17T08:11:14.739Z,92799.41
2023-01-17T08:13:43.069Z,92806.28
2023-01-17T08:16:12.180Z,92794.22
2023-01-17T08:18:41.120Z,92803.66
2023-01-17T08:21:16.988Z,92802.81
2023-01-17T08:23:48.539Z,92803.97
2023-01-17T08:26:21.489Z,92811.09
2023-01-17T08:28:50.708Z,92816.78
2023-01-17T08:31:20.075Z,92817.13
2023-01-17T08:33:48.406Z,92809.66
2023-01-17T08:36:18.322Z,92774.25
2023-01-17T08:38:46.688Z,92806.59
2023-01-17T08:41:15.112Z,92798.69
2023-01-17T08:43:43.709Z,92796.31
2023-01-17T08:46:12.089Z,92778.03
2023-01-17T08:48:40.472Z,92789.66
2023-01-17T08:51:08.857Z,92785.56
2023-01-17T08:53:38.744Z,92788.03
2023-01-17T08:56:07.748Z,92792.25
2023-01-17T08:58:36.292Z,92793.50
2023-01-17T09:01:06.665Z,92807.16
2023-01-17T09:03:38.394Z,92808.63
2023-01-17T09:06:11.221Z,92815.09
2023-01-17T09:08:41.933Z,92742.22
2023-01-17T09:11:12.289Z,92819.66
2023-01-17T09:13:41.202Z,92812.09
2023-01-17T09:16:09.858Z,92831.38
2023-01-17T09:18:38.973Z,92834.53
2023-01-17T09:21:15.076Z,92832.44
2023-01-17T09:23:45.473Z,92817.72
2023-01-17T09:26:20.500Z,92813.44
2023-01-17T09:28:49.090Z,92778.03
2023-01-17T09:31:17.925Z,92811.72
2023-01-17T09:33:46.483Z,92821.94
2023-01-17T09:36:15.281Z,92816.25
2023-01-17T09:38:45.669Z,92819.97
2023-01-17T09:41:27.752Z,92781.81
2023-01-17T09:44:02.785Z,92832.59
2023-01-17T09:46:33.706Z,92834.41
2023-01-17T09:49:09.693Z,92829.56
2023-01-17T09:51:38.505Z,92835.81
2023-01-17T09:54:20.419Z,92833.13
2023-01-17T09:56:58.737Z,92843.16
2023-01-17T09:59:34.982Z,92847.06
2023-01-17T10:02:18.935Z,92839.84
2023-01-17T10:05:05.191Z,92812.78
2023-01-17T10:07:47.200Z,92848.75
2023-01-17T10:10:30.073Z,92822.59
2023-01-17T10:13:05.494Z,92821.25
2023-01-17T10:15:55.417Z,92818.31
2023-01-17T10:18:56.336Z,92847.97
2023-01-17T10:21:33.179Z,92841.88
2023-01-17T10:24:32.339Z,92837.13
2023-01-17T10:27:03.600Z,92828.72
2023-01-17T10:29:36.566Z,92826.59
2023-01-17T10:32:05.024Z,92825.81
2023-01-17T10:34:37.831Z,92799.81
2023-01-17T10:37:17.495Z,92690.97
2023-01-17T10:39:48.884Z,92817.50
2023-01-17T10:42:25.202Z,92807.47
2023-01-17T10:45:00.740Z,92812.31
2023-01-17T10:47:33.897Z,92819.78
2023-01-17T10:50:06.073Z,92814.03
2023-01-17T10:52:45.385Z,92801.28
2023-01-17T10:55:29.242Z,92808.16
2023-01-17T10:57:59.380Z,92804.34
2023-01-17T11:00:44.148Z,92797.53
2023-01-17T11:03:14.287Z,92810.38
2023-01-17T11:05:43.748Z,92790.81
2023-01-17T11:08:14.379Z,92805.22
2023-01-17T11:10:48.403Z,92807.47
2023-01-17T11:13:30.780Z,92815.47
2023-01-17T11:16:02.589Z,92802.75
2023-01-17T11:18:32.841Z,92806.13
2023-01-17T11:21:12.343Z,92781.38
2023-01-17T11:23:43.466Z,92812.63
2023-01-17T11:26:14.397Z,92811.06
2023-01-17T11:28:44.200Z,92817.81
2023-01-17T11:31:27.733Z,92817.44
2023-01-17T11:34:17.196Z,92825.72
2023-01-17T11:36:46.693Z,92830.13
2023-01-17T11:39:27.720Z,92827.19
2023-01-17T11:41:56.367Z,92832.72
2023-01-17T11:44:28.641Z,92831.81
2023-01-17T11:47:19.448Z,92834.38
2023-01-17T11:49:49.510Z,92831.00
2023-01-17T11:52:25.491Z,92841.84
2023-01-17T11:54:56.424Z,92829.16
2023-01-17T11:57:27.685Z,92843.13
2023-01-17T12:00:11.975Z,92836.19
2023-01-17T12:03:07.554Z,92833.78
2023-01-17T12:05:59.958Z,92832.34
2023-01-17T12:08:46.339Z,92823.94
2023-01-17T12:11:19.812Z,92537.50
2023-01-17T12:14:03.104Z,92847.53
2023-01-17T12:16:49.251Z,92851.84
2023-01-17T12:19:34.733Z,92856.09
2023-01-17T12:22:17.415Z,92847.31
2023-01-17T12:25:24.747Z,92845.97
2023-01-17T12:28:16.793Z,92591.84
2023-01-17T12:31:00.396Z,92842.84
2023-01-17T12:33:39.450Z,92840.44
2023-01-17T12:36:17.732Z,92786.44
2023-01-17T12:38:48.857Z,92838.22
2023-01-17T12:41:23.560Z,92836.78
2023-01-17T12:43:56.718Z,92785.16
2023-01-17T12:46:31.702Z,92821.00
2023-01-17T12:49:06.003Z,92818.56
2023-01-17T12:51:40.549Z,92818.25
2023-01-17T12:54:17.297Z,92754.34
2023-01-17T12:56:50.387Z,92820.53
2023-01-17T12:59:27.174Z,92822.13
2023-01-17T13:01:58.777Z,92838.34
2023-01-17T13:04:37.294Z,92805.78
2023-01-17T13:07:19.842Z,92809.66
2023-01-17T13:09:54.069Z,92814.75
2023-01-17T13:12:24.204Z,92814.25
2023-01-17T13:14:52.525Z,92812.66
2023-01-17T13:17:32.901Z,92807.75
2023-01-17T13:20:09.902Z,92805.41
2023-01-17T13:22:40.412Z,92814.25
2023-01-17T13:25:22.748Z,92813.69
2023-01-17T13:28:04.653Z,92809.34
2023-01-17T13:30:54.435Z,92804.53
2023-01-17T13:33:42.554Z,92810.28
2023-01-17T13:36:38.074Z,92808.69
2023-01-17T13:39:27.227Z,92817.66
2023-01-17T13:42:10.957Z,92819.44
2023-01-17T13:44:39.575Z,92819.16
2023-01-17T13:47:40.554Z,92818.56
2023-01-17T13:50:47.348Z,92820.66
2023-01-17T13:53:58.058Z,92828.13
2023-01-17T13:56:36.287Z,92811.66
2023-01-17T13:59:34.487Z,92839.91
2023-01-17T14:02:03.648Z,92832.53
2023-01-17T14:05:09.255Z,92828.50
2023-01-17T14:07:44.373Z,92836.94
2023-01-17T14:10:37.878Z,92831.84
2023-01-17T14:13:26.807Z,92828.13
2023-01-17T14:15:55.467Z,92833.94
2023-01-17T14:18:35.301Z,92821.94
2023-01-17T14:21:12.030Z,92814.91
2023-01-17T14:24:15.529Z,92832.34
2023-01-17T14:26:47.256Z,92822.09
2023-01-17T14:29:50.965Z,92823.69
2023-01-17T14:32:21.836Z,92822.97
2023-01-17T14:34:52.347Z,92829.34
2023-01-17T14:37:31.816Z,92827.78
2023-01-17T14:40:01.471Z,92834.75
2023-01-17T14:42:31.855Z,92831.59
2023-01-17T14:45:05.765Z,92835.31
2023-01-17T14:47:39.420Z,92830.81
2023-01-17T14:50:11.537Z,92833.91
2023-01-17T14:52:39.825Z,92841.50
2023-01-17T14:55:17.019Z,92838.47
2023-01-17T14:57:54.813Z,92825.50
2023-01-17T15:00:29.367Z,92824.69
2023-01-17T15:03:00.774Z,92820.47
2023-01-17T15:05:31.466Z,92822.34
2023-01-17T15:08:00.583Z,92818.59
2023-01-17T15:10:32.382Z,92819.97
2023-01-17T15:13:09.160Z,92826.34
2023-01-17T15:15:42.340Z,92822.13
2023-01-17T15:18:19.558Z,92779.53
2023-01-17T15:20:53.208Z,92817.19
2023-01-17T15:23:22.378Z,92806.53
2023-01-17T15:25:52.711Z,92811.53
2023-01-17T15:28:21.567Z,92779.75
2023-01-17T15:31:09.931Z,92814.25
2023-01-17T15:33:41.148Z,92822.00
2023-01-17T15:36:25.977Z,92810.31
2023-01-17T15:38:59.678Z,92804.50
2023-01-17T15:41:30.192Z,92797.97
2023-01-17T15:43:58.950Z,92721.28
2023-01-17T15:46:33.229Z,92797.19
2023-01-17T15:49:19.398Z,92805.72
2023-01-17T15:51:53.923Z,92802.66
2023-01-17T15:54:36.917Z,92791.81
2023-01-17T15:57:14.880Z,92796.75
2023-01-17T15:59:46.699Z,92751.09
2023-01-17T16:02:50.126Z,92769.34
2023-01-17T16:05:43.976Z,92790.44
2023-01-17T16:08:39.749Z,92786.84
2023-01-17T16:11:09.837Z,92790.13
2023-01-17T16:13:42.355Z,92790.69
2023-01-17T16:16:20.732Z,92779.06
2023-01-17T16:18:56.127Z,92782.84
2023-01-17T16:21:27.137Z,92790.34
2023-01-17T16:23:55.797Z,92787.25
2023-01-17T16:26:24.340Z,92764.72
2023-01-17T16:28:53.265Z,92786.78
2023-01-17T16:31:21.898Z,92786.28
2023-01-17T16:33:52.320Z,92768.38
2023-01-17T16:36:23.048Z,92728.19
2023-01-17T16:38:53.706Z,92787.19
2023-01-17T16:41:22.378Z,92779.63
2023-01-17T16:44:02.000Z,92769.72
2023-01-17T16:46:30.958Z,92781.06
2023-01-17T16:49:02.514Z,92774.53
2023-01-17T16:51:30.944Z,92771.94
2023-01-17T16:53:59.664Z,92775.38
2023-01-17T16:56:28.083Z,92777.25
2023-01-17T16:58:56.891Z,92772.50
2023-01-17T17:01:25.549Z,92768.00
2023-01-17T17:03:54.033Z,92749.38
2023-01-17T17:06:24.571Z,92771.03
2023-01-17T17:08:52.877Z,92776.63
2023-01-17T17:11:24.724Z,92779.03
2023-01-17T17:13:53.720Z,92789.66
2023-01-17T17:16:26.593Z,92772.59
2023-01-17T17:19:00.234Z,92797.34
2023-01-17T17:21:30.045Z,92800.84
2023-01-17T17:23:59.979Z,92807.19
2023-01-17T17:26:32.262Z,92808.50
2023-01-17T17:29:02.093Z,92808.50
2023-01-17T17:31:30.702Z,92814.03
2023-01-17T17:34:00.609Z,92830.75
2023-01-17T17:36:31.929Z,92817.81
2023-01-17T17:39:01.966Z,92819.22
2023-01-17T17:41:32.027Z,92837.75
2023-01-17T17:44:03.209Z,92784.81
2023-01-17T17:46:33.950Z,92824.28
2023-01-17T17:49:03.047Z,92801.69
2023-01-17T17:51:35.682Z,92838.53
2023-01-17T17:54:07.242Z,92837.47
2023-01-17T17:56:36.855Z,92845.13
2023-01-17T17:59:09.150Z,92825.41
2023-01-17T18:01:38.335Z,92849.34
2023-01-17T18:04:09.323Z,92840.94
2023-01-17T18:06:39.960Z,92839.41
2023-01-17T18:09:09.328Z,92861.56
2023-01-17T18:11:39.836Z,92867.63
2023-01-17T18:14:10.408Z,92873.69
2023-01-17T18:16:41.867Z,92878.44
2023-01-17T18:19:14.720Z,92869.72
2023-01-17T18:21:44.847Z,92875.53
2023-01-17T18:24:14.835Z,92872.06
2023-01-17T18:26:45.299Z,92873.41
2023-01-17T18:29:16.011Z,92869.19
2023-01-17T18:31:45.786Z,92867.09
2023-01-17T18:34:16.414Z,92868.69
2023-01-17T18:36:46.215Z,92869.00
2023-01-17T18:39:16.561Z,92803.38
2023-01-17T18:41:45.083Z,92865.59
2023-01-17T18:44:13.809Z,92863.75
2023-01-17T18:46:43.390Z,92851.88
2023-01-17T18:49:13.384Z,92859.50
2023-01-17T18:51:42.951Z,92819.47
2023-01-17T18:54:13.250Z,92847.06
2023-01-17T18:56:42.554Z,92841.25
2023-01-17T18:59:13.021Z,92834.41
2023-01-17T19:01:43.852Z,92846.50
2023-01-17T19:04:14.377Z,92854.44
2023-01-17T19:06:45.083Z,92847.88
2023-01-17T19:09:16.643Z,92824.09
2023-01-17T19:11:45.657Z,92822.28
2023-01-17T19:14:14.598Z,92807.00
2023-01-17T19:16:43.689Z,92851.28
2023-01-17T19:19:14.817Z,92856.56
2023-01-17T19:21:43.536Z,92849.44
2023-01-17T19:24:13.320Z,92858.13
2023-01-17T19:26:43.691Z,92863.41
2023-01-17T19:29:12.692Z,92856.81
2023-01-17T19:31:43.713Z,92848.16
2023-01-17T19:34:13.971Z,92866.88
2023-01-17T19:36:42.828Z,92847.69
2023-01-17T19:39:11.790Z,92867.19
2023-01-17T19:41:46.058Z,92873.53
2023-01-17T19:44:15.917Z,92877.75
2023-01-17T19:46:46.230Z,92875.41
2023-01-17T19:49:16.459Z,92892.06
2023-01-17T19:51:44.942Z,92885.44
2023-01-17T19:54:15.297Z,92885.69
2023-01-17T19:56:43.697Z,92886.75
2023-01-17T19:59:14.137Z,92886.75
2023-01-17T20:01:42.831Z,92884.91
2023-01-17T20:04:12.913Z,92892.31
2023-01-17T20:06:41.353Z,92859.09
2023-01-17T20:09:09.867Z,92888.88
2023-01-17T20:11:42.293Z,92888.88
2023-01-17T20:14:16.706Z,92872.31
2023-01-17T20:16:47.629Z,92903.94
2023-01-17T20:19:15.981Z,92906.84
2023-01-17T20:21:44.675Z,92912.16
2023-01-17T20:24:13.699Z,92911.09
2023-01-17T20:26:44.312Z,92898.19
2023-01-17T20:29:16.089Z,92917.97
2023-01-17T20:31:45.964Z,92907.44
2023-01-17T20:34:19.719Z,92910.84
2023-01-17T20:36:48.389Z,92866.84
2023-01-17T20:39:17.470Z,92909.81
2023-01-17T20:41:46.599Z,92896.38
2023-01-17T20:44:19.014Z,92912.75
2023-01-17T20:46:48.343Z,92914.84
2023-01-17T20:49:18.947Z,92927.53
2023-01-17T20:51:47.996Z,92917.75
2023-01-17T20:54:18.347Z,92867.66
2023-01-17T20:56:48.044Z,92923.81
2023-01-17T20:59:20.204Z,92922.25
2023-01-17T21:01:49.017Z,92904.31
2023-01-17T21:04:20.170Z,92876.38
2023-01-17T21:06:51.718Z,92929.16
2023-01-17T21:09:21.420Z,92921.78
2023-01-17T21:11:50.823Z,92917.25
2023-01-17T21:14:21.794Z,92918.06
2023-01-17T21:16:51.460Z,92897.50
2023-01-17T21:19:20.656Z,92915.44
2023-01-17T21:21:50.260Z,92924.41
2023-01-17T21:24:19.688Z,92927.56
2023-01-17T21:26:51.550Z,92919.66
2023-01-17T21:29:21.278Z,92927.03
2023-01-17T21:31:49.581Z,92932.31
2023-01-17T21:34:17.936Z,92925.97
2023-01-17T21:36:46.287Z,92923.31
2023-01-17T21:39:17.334Z,92921.75
2023-01-17T21:41:48.042Z,92914.09
2023-01-17T21:44:19.484Z,92899.06
2023-01-17T21:46:54.284Z,92933.91
2023-01-17T21:49:24.367Z,92933.09
2023-01-17T21:52:10.199Z,92934.69
2023-01-17T21:54:55.608Z,92923.31
2023-01-17T21:57:41.852Z,92890.13
2023-01-17T22:00:14.600Z,92931.28
2023-01-17T22:02:44.992Z,92923.88
2023-01-17T22:05:13.651Z,92937.34
2023-01-17T22:08:03.259Z,92927.81
2023-01-17T22:10:33.662Z,92930.47
2023-01-17T22:13:02.035Z,92926.53
2023-01-17T22:15:30.472Z,92893.56
2023-01-17T22:18:00.550Z,92876.44
2023-01-17T22:20:29.280Z,92929.69
2023-01-17T22:22:57.890Z,92930.25
2023-01-17T22:25:26.566Z,92921.78
2023-01-17T22:27:55.212Z,92917.53
2023-01-17T22:30:23.719Z,92917.00
2023-01-17T22:32:52.071Z,92880.06
2023-01-17T22:35:21.817Z,92908.00
2023-01-17T22:37:50.253Z,92896.91
2023-01-17T22:40:19.143Z,92901.69
2023-01-17T22:42:47.545Z,92878.72
2023-01-17T22:45:17.472Z,92897.97
2023-01-17T22:47:45.789Z,92902.47
2023-01-17T22:50:14.493Z,92902.22
2023-01-17T22:52:44.294Z,92906.44
2023-01-17T22:55:12.756Z,92899.81
2023-01-17T22:57:41.192Z,92890.84
2023-01-17T23:00:14.686Z,92899.81
2023-01-17T23:02:43.475Z,92889.00
2023-01-17T23:05:12.057Z,92887.69
2023-01-17T23:07:44.328Z,92883.22
2023-01-17T23:10:36.332Z,92853.69
2023-01-17T23:13:04.720Z,92847.94
2023-01-17T23:15:50.389Z,92895.63
2023-01-17T23:18:44.434Z,92890.09
2023-01-17T23:21:12.771Z,92900.41
2023-01-17T23:23:41.198Z,92886.97
2023-01-17T23:26:10.939Z,92898.03
2023-01-17T23:28:38.198Z,92876.91
2023-01-17T23:31:08.729Z,92885.09
2023-01-17T23:33:37.119Z,92894.06
2023-01-17T23:36:09.390Z,92887.75
2023-01-17T23:38:40.782Z,92877.72
2023-01-17T23:41:28.727Z,92889.03
2023-01-17T23:43:59.195Z,92890.09
2023-01-17T23:46:30.230Z,92896.16
2023-01-17T23:48:58.626Z,92896.44
2023-01-17T23:51:26.932Z,92902.25
2023-01-17T23:54:05.499Z,92897.50
2023-01-17T23:56:35.389Z,92899.84
2023-01-17T23:59:04.601Z,92884.81
